Pagrindinis puslapis
METAR-TAF:

METAR-TAF

Oro uostai :

Kelibia, Tunisas

platuma: 36-51N, ilguma: 011-05E, Aukštis: 29 m

Dabartinis oras

Ataskaita buvo paskelbta 35 minutes, ne 16:00 UTC
Vėjas 6 kt iš Vakarų/Pietvakarių, svyruoja nuo Pietų/Pietvakarių ir Šiaurės Vakarų
Temperatūra 15°C
Drėgmė 63%
Slėgis 1014 hPa

METAR: DTTL 231600Z AUTO 25006KT 200V310 NCD 15/08 Q1014

Laikas: 17:35 (16:35 UTC)


TAF: trūkstamas

Orai ataskaitas ir orų prognozės (METAR, TAF).

turimą stotys yra geltonos ir raudonos taškus žemėlapyje.

Perkelti pele per norėdami pamatyti stoties vardą.

Tada spustelėkite, norėdami matyti oro stebėjimo ir prognozės.

Norėdami pakeisti žemėlapį: spustelėkite ant žalios mygtukų su juodo kryžiaus žemyn,; žalią mygtuką su brūkšneliu, jei norite nutolinti; arba žalių rodyklių gretimoms žemėlapius.


METAR-TAF: